KADS/ADS METAR and TAF weather

Enter ICAO airport designator
Station Type Date Time Source
KADS METAR 2018/07/21 11:47 UTC NOAA

KADS 211147Z 20005KT 10SM SKC 28/18 A2996


Station Type Date Time Source
KADS Decoded METAR 2018/07/21 11:47 UTC NOAA

Dallas / Addison Airport, TX, United States (KADS) 32-58N 096-50W
Jul 21, 2018 - 07:47 AM EDT / 2018.07.21 1147 UTC
Wind: from the SSW (200 degrees) at 6 MPH (5 KT):0
Visibility: 10 mile(s):0
Sky conditions: clear
Temperature: 82 F (28 C)
Dew Point: 64 F (18 C)
Relative Humidity: 54%
Pressure (altimeter): 29.96 in. Hg (1014 hPa)
ob: KADS 211147Z 20005KT 10SM SKC 28/18 A2996
cycle: 12

Station Type Date Time Source
KADS TAF UTC NOAA

Error!


Example: see airport list